Time;durP1;ratioP1;P1;durP2;ratioP2;P2;SDS_P1;SDS_P2;PMS_P1;PMS_P2;Temp;Humidity;BMP_temperature;BMP_pressure;BME280_temperature;BME280_humidity;BME280_pressure;Samples;Min_cycle;Max_cycle;Signal;HPM_P1;HPM_P2
2021/11/19 00:01:02;;;;;;;11.60;6.50;;;;;;;6.28;80.82;99709.94;431473;1310;141351;-62
2021/11/19 00:11:13;;;;;;;6.50;5.30;;;;;;;6.28;80.82;99705.95;435388;1310;145592;-63
2021/11/19 00:21:20;;;;;;;7.30;6.10;;;;;;;6.32;80.83;99699.20;430084;1311;141469;-63
2021/11/19 00:31:26;;;;;;;7.80;5.30;;;;;;;6.26;81.12;99685.85;434931;1309;141061;-63
2021/11/19 00:41:32;;;;;;;7.60;6.00;;;;;;;6.17;81.65;99682.80;434495;1309;144989;-62
2021/11/19 00:51:41;;;;;;;8.10;6.00;;;;;;;6.05;82.11;99673.76;427679;1309;141531;-61
2021/11/19 01:01:52;;;;;;;7.90;5.40;;;;;;;5.94;82.89;99674.04;425992;1310;144268;-62
2021/11/19 01:12:01;;;;;;;10.70;6.40;;;;;;;5.80;83.50;99655.69;428545;1310;140449;-63
2021/11/19 01:22:13;;;;;;;9.90;6.80;;;;;;;5.71;83.82;99643.90;425928;1314;141466;-62
2021/11/19 01:32:25;;;;;;;8.20;4.80;;;;;;;5.64;84.41;99644.22;434745;1309;140809;-63
2021/11/19 01:42:35;;;;;;;6.50;4.90;;;;;;;5.59;84.71;99629.46;434949;1309;140985;-64
2021/11/19 01:52:46;;;;;;;4.80;4.10;;;;;;;5.58;85.14;99617.02;435341;1309;141662;-62
2021/11/19 02:02:55;;;;;;;3.80;3.50;;;;;;;5.58;85.32;99605.90;434458;1313;140532;-62
2021/11/19 02:13:12;;;;;;;3.20;2.90;;;;;;;5.61;85.59;99593.95;431535;1315;141113;-63
2021/11/19 02:23:26;;;;;;;2.70;2.30;;;;;;;5.62;85.81;99582.29;423765;1310;142324;-62
2021/11/19 02:33:33;;;;;;;2.50;2.20;;;;;;;5.64;86.18;99575.96;433853;1314;141993;-66
2021/11/19 02:43:47;;;;;;;3.20;2.30;;;;;;;5.65;86.39;99571.73;423990;1315;143580;-62
2021/11/19 02:53:55;;;;;;;1.90;1.80;;;;;;;5.69;86.67;99572.77;429459;1315;193369;-63
2021/11/19 03:04:15;;;;;;;1.90;1.80;;;;;;;5.73;86.68;99575.02;428001;1310;141441;-63
2021/11/19 03:14:23;;;;;;;2.10;2.00;;;;;;;5.74;86.98;99573.94;427950;1312;141192;-62
2021/11/19 03:24:29;;;;;;;2.30;2.20;;;;;;;5.74;87.17;99553.28;431180;1308;282117;-62
2021/11/19 03:34:37;;;;;;;2.90;2.70;;;;;;;5.78;87.47;99543.02;432604;1312;140840;-62
2021/11/19 03:44:46;;;;;;;3.30;3.10;;;;;;;5.85;87.54;99530.02;433059;1312;142171;-62
2021/11/19 03:54:56;;;;;;;3.20;3.00;;;;;;;5.94;87.77;99520.63;434677;1307;141225;-62
2021/11/19 04:05:02;;;;;;;4.50;4.20;;;;;;;6.00;87.78;99533.20;420961;1309;140050;-62
2021/11/19 04:15:14;;;;;;;5.60;5.00;;;;;;;6.05;87.89;99534.70;425407;1313;141480;-63
2021/11/19 04:25:23;;;;;;;5.00;4.60;;;;;;;6.10;87.99;99533.30;434860;1310;141009;-62
2021/11/19 04:35:32;;;;;;;6.40;5.90;;;;;;;6.18;88.04;99543.70;434262;1312;141919;-62
2021/11/19 04:45:40;;;;;;;6.40;5.90;;;;;;;6.24;88.14;99553.48;434861;1312;141897;-62
2021/11/19 04:55:47;;;;;;;6.50;5.90;;;;;;;6.30;88.25;99555.30;429855;1310;142078;-63
2021/11/19 05:05:54;;;;;;;7.40;6.80;;;;;;;6.35;88.35;99548.31;434885;1309;141437;-63
2021/11/19 05:16:02;;;;;;;7.00;6.50;;;;;;;6.40;88.40;99556.42;427453;1310;141819;-62
2021/11/19 05:26:10;;;;;;;5.40;5.00;;;;;;;6.44;88.37;99559.48;420009;1313;140857;-62
2021/11/19 05:36:17;;;;;;;6.20;5.70;;;;;;;6.47;88.47;99564.08;434160;1312;141485;-62
2021/11/19 05:46:26;;;;;;;6.80;6.20;;;;;;;6.54;88.55;99567.92;435036;1310;141563;-63
2021/11/19 05:56:33;;;;;;;7.20;6.60;;;;;;;6.61;88.64;99570.70;435586;1310;143090;-63
2021/11/19 06:06:41;;;;;;;8.10;7.40;;;;;;;6.69;88.91;99574.35;434855;1309;145365;-62
2021/11/19 06:16:48;;;;;;;;;;;;;;;6.78;88.86;99570.63;433696;1310;143663;-62
2021/11/19 06:26:55;;;;;;;12.20;11.00;;;;;;;6.85;89.12;99571.30;433702;1310;127835;-67
2021/11/19 06:37:01;;;;;;;12.60;11.30;;;;;;;6.95;89.16;99577.80;435573;1310;142332;-68
2021/11/19 06:47:11;;;;;;;14.20;12.80;;;;;;;7.05;89.43;99579.20;435192;1310;145487;-68
2021/11/19 06:57:19;;;;;;;15.00;13.50;;;;;;;7.14;89.47;99585.36;428407;1310;141508;-65
2021/11/19 07:07:25;;;;;;;15.90;12.50;;;;;;;7.24;89.41;99598.48;418977;1312;143176;-66
2021/11/19 07:17:30;;;;;;;15.20;12.60;;;;;;;7.32;89.59;99604.54;419218;1310;140745;-66
2021/11/19 07:27:37;;;;;;;12.40;11.30;;;;;;;7.38;89.60;99604.05;426184;1309;142073;-68
2021/11/19 07:37:42;;;;;;;11.40;10.20;;;;;;;7.45;89.77;99601.23;435616;1308;142216;-67
2021/11/19 07:47:50;;;;;;;11.20;10.10;;;;;;;7.54;89.70;99604.63;433155;1310;142888;-66
2021/11/19 07:57:57;;;;;;;11.40;10.30;;;;;;;7.63;89.54;99614.66;429356;1306;143148;-68
2021/11/19 08:08:03;;;;;;;12.50;11.30;;;;;;;7.71;89.71;99625.90;423401;1310;146711;-66
2021/11/19 08:18:15;;;;;;;11.20;10.00;;;;;;;7.78;89.74;99631.50;424464;1310;141577;-69
2021/11/19 08:28:21;;;;;;;11.50;10.30;;;;;;;7.81;89.61;99643.69;433974;1309;142487;-67
2021/11/19 08:38:28;;;;;;;10.30;9.40;;;;;;;7.88;89.71;99643.88;434408;1306;142582;-62
2021/11/19 08:48:36;;;;;;;10.50;9.40;;;;;;;8.00;89.82;99647.77;434501;1309;142956;-64
2021/11/19 08:58:43;;;;;;;10.60;9.50;;;;;;;8.15;89.83;99642.63;434637;1308;141835;-65
2021/11/19 09:08:50;;;;;;;9.50;8.60;;;;;;;8.30;89.80;99649.38;432536;1308;142664;-70
2021/11/19 09:19:11;;;;;;;9.10;8.30;;;;;;;8.37;89.64;99655.40;435887;1309;142119;-67
2021/11/19 09:29:20;;;;;;;8.70;7.80;;;;;;;8.46;89.78;99648.31;428386;1310;140973;-69
2021/11/19 09:39:27;;;;;;;9.70;8.10;;;;;;;8.54;89.67;99644.79;434719;1308;142853;-66
2021/11/19 09:50:00;;;;;;;10.80;9.70;;;;;;;8.58;89.56;99640.90;433527;1312;141690;-64
2021/11/19 10:00:20;;;;;;;12.30;10.70;;;;;;;8.62;89.67;99633.89;434959;1310;142526;-63
2021/11/19 10:10:37;;;;;;;12.80;10.90;;;;;;;8.65;89.62;99630.75;430334;1309;141541;-65
2021/11/19 10:20:47;;;;;;;12.00;10.80;;;;;;;8.68;89.88;99625.67;428181;1309;143067;-72
2021/11/19 10:30:55;;;;;;;14.10;11.70;;;;;;;8.75;89.92;99617.10;430700;1309;141468;-71
2021/11/19 10:41:19;;;;;;;;;;;;;;;8.78;89.88;99607.01;429918;1309;142933;-64
2021/11/19 10:51:46;;;;;;;12.90;10.90;;;;;;;8.79;89.92;99599.23;411490;1309;10059770;-65
2021/11/19 11:01:57;;;;;;;;;;;;;;;8.86;89.91;99588.38;435061;1311;142785;-63
2021/11/19 11:12:17;;;;;;;13.40;11.90;;;;;;;8.90;89.74;99594.81;423512;1310;129588;-63
2021/11/19 11:22:26;;;;;;;13.70;12.30;;;;;;;8.89;90.00;99584.20;421763;1312;279506;-62
2021/11/19 11:32:52;;;;;;;12.50;11.20;;;;;;;8.85;89.95;99588.45;430471;1309;143335;-63
2021/11/19 11:43:16;;;;;;;13.00;11.80;;;;;;;8.85;89.92;99590.72;435550;1309;145240;-63
2021/11/19 11:53:25;;;;;;;11.60;10.50;;;;;;;8.89;89.86;99594.34;434503;1312;142029;-67
2021/11/19 12:03:42;;;;;;;12.70;11.40;;;;;;;8.93;89.86;99588.19;434318;1312;144123;-66
2021/11/19 12:13:53;;;;;;;14.80;11.60;;;;;;;8.97;89.86;99582.18;435022;1310;141246;-64
2021/11/19 12:24:05;;;;;;;11.40;10.20;;;;;;;9.00;89.90;99573.96;434321;1311;160158;-62
2021/11/19 12:34:30;;;;;;;10.70;9.70;;;;;;;9.03;89.96;99583.05;434105;1312;145640;-65
2021/11/19 12:44:52;;;;;;;9.10;8.00;;;;;;;9.06;89.93;99582.86;434769;1312;142413;-65
2021/11/19 12:55:12;;;;;;;10.50;9.40;;;;;;;9.11;90.09;99586.45;433353;1312;143852;-62
2021/11/19 13:05:25;;;;;;;9.30;8.30;;;;;;;9.12;89.90;99586.05;427942;1308;141844;-63
2021/11/19 13:15:40;;;;;;;9.90;8.90;;;;;;;9.15;89.84;99587.48;434378;1311;142514;-58
2021/11/19 13:25:49;;;;;;;11.00;9.90;;;;;;;9.18;90.00;99577.29;434166;1311;141227;-61
2021/11/19 13:36:25;;;;;;;11.10;10.00;;;;;;;9.20;89.73;99574.05;434036;1310;142708;-63
2021/11/19 13:46:43;;;;;;;13.00;10.60;;;;;;;9.21;89.82;99587.28;435097;1312;141417;-68
2021/11/19 13:56:52;;;;;;;16.90;12.10;;;;;;;9.23;89.78;99587.69;432994;1307;142613;-67
2021/11/19 14:07:12;;;;;;;9.60;8.80;;;;;;;9.25;89.92;99592.46;416392;1312;10001774;-65
2021/11/19 14:17:32;;;;;;;10.20;9.10;;;;;;;9.24;89.93;99582.53;434259;1309;142688;-63
2021/11/19 14:27:45;;;;;;;9.60;8.70;;;;;;;9.26;89.85;99585.73;426148;1309;142356;-69
2021/11/19 14:37:53;;;;;;;10.20;9.10;;;;;;;9.29;89.82;99596.94;425215;1306;142589;-64
2021/11/19 14:48:02;;;;;;;;;;;;;;;9.29;89.78;99599.58;426684;1310;165643;-65
2021/11/19 14:58:20;;;;;;;10.00;9.00;;;;;;;9.31;89.92;99605.17;435347;1310;128308;-66
2021/11/19 15:08:31;;;;;;;;;;;;;;;9.30;90.23;99607.54;422335;1310;10001968;-64
2021/11/19 15:18:47;;;;;;;10.60;9.70;;;;;;;9.34;90.02;99596.80;434690;1312;132614;-64
2021/11/19 15:29:15;;;;;;;11.70;10.50;;;;;;;9.36;90.00;99591.08;431501;1313;144604;-61
2021/11/19 15:39:21;;;;;;;10.90;9.90;;;;;;;9.38;90.00;99590.48;433495;1310;142067;-63
2021/11/19 15:49:29;;;;;;;11.20;10.20;;;;;;;9.36;90.05;99587.97;427023;1314;141984;-63
2021/11/19 15:59:46;;;;;;;13.40;10.70;;;;;;;9.35;90.09;99583.15;418913;1312;142335;-65
2021/11/19 16:10:10;;;;;;;11.00;9.80;;;;;;;9.31;90.15;99581.08;426617;1312;143609;-65
2021/11/19 16:20:25;;;;;;;10.70;9.70;;;;;;;9.30;90.18;99577.14;422496;1312;142885;-66
2021/11/19 16:30:33;;;;;;;10.40;9.40;;;;;;;9.26;90.25;99577.05;419686;1312;141953;-63
2021/11/19 16:40:42;;;;;;;10.00;9.10;;;;;;;9.26;90.50;99576.15;420969;1312;10001448;-62
2021/11/19 16:50:53;;;;;;;10.50;9.50;;;;;;;9.28;90.55;99577.61;433158;1313;142654;-65
2021/11/19 17:01:04;;;;;;;9.80;9.00;;;;;;;9.26;90.42;99577.72;435077;1311;142023;-64
2021/11/19 17:11:12;;;;;;;10.00;9.00;;;;;;;9.30;90.70;99580.30;433646;1312;141346;-64
2021/11/19 17:21:22;;;;;;;9.90;9.00;;;;;;;9.31;90.63;99581.30;424565;1312;141854;-62
2021/11/19 17:31:30;;;;;;;9.40;8.60;;;;;;;9.31;90.74;99573.77;419392;1312;141864;-62
2021/11/19 17:41:37;;;;;;;9.50;8.60;;;;;;;9.28;90.68;99571.51;433939;1312;143979;-62
2021/11/19 17:51:45;;;;;;;10.10;9.10;;;;;;;9.27;90.54;99574.55;435033;1312;141791;-60
2021/11/19 18:01:52;;;;;;;9.00;8.20;;;;;;;9.30;90.73;99564.04;435173;1312;143948;-66
2021/11/19 18:12:02;;;;;;;8.30;7.50;;;;;;;9.31;90.82;99559.27;430992;1312;146106;-62
2021/11/19 18:22:11;;;;;;;9.80;9.00;;;;;;;9.33;90.85;99564.55;431072;1312;144162;-63
2021/11/19 18:32:21;;;;;;;9.30;8.50;;;;;;;9.35;90.79;99574.38;435059;1312;141493;-64
2021/11/19 18:42:31;;;;;;;10.30;9.30;;;;;;;9.36;90.69;99574.66;431127;1312;141961;-63
2021/11/19 18:52:39;;;;;;;9.00;8.20;;;;;;;9.40;90.73;99578.09;435056;1312;141780;-63
2021/11/19 19:02:47;;;;;;;10.00;8.80;;;;;;;9.44;90.49;99572.98;434239;1307;142118;-62
2021/11/19 19:12:53;;;;;;;10.80;9.80;;;;;;;9.46;90.45;99568.51;427562;1316;142889;-62
2021/11/19 19:23:01;;;;;;;9.30;8.40;;;;;;;9.47;90.19;99557.25;433786;1311;166966;-62
2021/11/19 19:33:08;;;;;;;8.90;8.10;;;;;;;9.50;90.08;99540.49;434269;1315;142177;-61
2021/11/19 19:43:17;;;;;;;9.70;8.60;;;;;;;9.52;89.84;99542.45;434307;1311;141510;-62
2021/11/19 19:53:25;;;;;;;8.70;7.80;;;;;;;9.53;89.51;99549.77;435037;1316;141516;-65
2021/11/19 20:03:33;;;;;;;9.10;8.20;;;;;;;9.56;89.26;99534.54;434297;1314;141333;-62
2021/11/19 20:13:40;;;;;;;9.50;8.50;;;;;;;9.55;88.88;99537.79;435033;1310;142294;-62
2021/11/19 20:23:47;;;;;;;9.40;8.50;;;;;;;9.58;88.79;99553.83;434215;1312;142042;-61
2021/11/19 20:33:55;;;;;;;8.50;7.20;;;;;;;9.59;88.62;99553.56;435169;1312;141174;-63
2021/11/19 20:44:02;;;;;;;10.50;7.90;;;;;;;9.60;88.43;99548.83;425990;1312;141956;-62
2021/11/19 20:54:10;;;;;;;8.20;7.30;;;;;;;9.59;88.10;99538.20;434131;1313;142306;-62
2021/11/19 21:04:19;;;;;;;10.30;7.60;;;;;;;9.58;87.87;99529.73;435104;1310;141405;-63
2021/11/19 21:14:27;;;;;;;8.10;6.70;;;;;;;9.60;87.60;99530.67;434097;1310;141292;-62
2021/11/19 21:24:33;;;;;;;7.50;6.80;;;;;;;9.60;87.18;99542.85;432307;1313;142455;-63
2021/11/19 21:34:40;;;;;;;8.50;6.80;;;;;;;9.59;87.02;99533.67;435149;1308;142950;-61
2021/11/19 21:44:51;;;;;;;7.10;6.30;;;;;;;9.56;86.84;99521.60;432753;1313;142571;-62
2021/11/19 21:55:08;;;;;;;11.40;9.20;;;;;;;9.57;86.61;99518.63;422514;1313;145500;-62
2021/11/19 22:05:18;;;;;;;9.30;8.20;;;;;;;9.54;86.49;99525.22;419851;1312;143132;-62
2021/11/19 22:15:27;;;;;;;7.50;6.70;;;;;;;9.48;86.32;99534.88;430146;1312;144376;-61
2021/11/19 22:25:34;;;;;;;7.50;6.80;;;;;;;9.45;86.10;99537.83;433599;1308;141352;-61
2021/11/19 22:35:42;;;;;;;8.20;6.90;;;;;;;9.45;85.95;99529.95;433032;1312;141925;-60
2021/11/19 22:45:51;;;;;;;6.80;6.10;;;;;;;9.44;85.91;99534.55;427944;1312;141924;-61
2021/11/19 22:55:59;;;;;;;10.30;8.40;;;;;;;9.42;85.75;99540.64;422423;1312;142179;-59
2021/11/19 23:06:07;;;;;;;8.00;7.20;;;;;;;9.38;85.68;99546.60;428465;1312;145400;-60
2021/11/19 23:16:16;;;;;;;7.60;6.90;;;;;;;9.41;85.59;99545.77;433379;1310;142426;-61
2021/11/19 23:26:24;;;;;;;7.30;6.00;;;;;;;9.43;85.43;99526.62;419525;1312;20001782;-59
2021/11/19 23:36:33;;;;;;;7.90;5.70;;;;;;;9.42;85.15;99500.45;429675;1308;142691;-59
2021/11/19 23:46:42;;;;;;;6.70;5.70;;;;;;;9.43;84.98;99498.11;429497;1310;142395;-59
2021/11/19 23:56:51;;;;;;;5.10;4.60;;;;;;;9.45;84.78;99500.97;428679;1310;141985;-60
